Time;durP1;ratioP1;P1;durP2;ratioP2;P2;SDS_P1;SDS_P2;PMS_P1;PMS_P2;Temp;Humidity;BMP_temperature;BMP_pressure;BME280_temperature;BME280_humidity;BME280_pressure;Samples;Min_cycle;Max_cycle;Signal;HPM_P1;HPM_P2
2022/10/15 00:01:14;;;;;;;48.60;30.85;;;12.10;94.20;;;;;;5035961;28;20025;-58
2022/10/15 00:03:43;;;;;;;44.40;29.45;;;12.10;94.20;;;;;;5055905;28;20131;-57
2022/10/15 00:06:16;;;;;;;44.45;29.05;;;12.00;94.10;;;;;;5054828;28;20401;-58
2022/10/15 00:08:46;;;;;;;46.70;29.42;;;11.90;94.10;;;;;;5047404;28;20413;-58
2022/10/15 00:11:30;;;;;;;;;;;11.90;94.10;;;;;;5027319;28;20454;-58
2022/10/15 00:13:58;;;;;;;43.13;28.70;;;11.90;94.10;;;;;;5055910;28;20565;-56
2022/10/15 00:16:27;;;;;;;42.85;30.23;;;11.80;94.10;;;;;;5053432;28;20405;-58
2022/10/15 00:19:00;;;;;;;43.85;30.35;;;11.80;94.10;;;;;;5036671;28;20021;-54
2022/10/15 00:21:27;;;;;;;43.20;27.27;;;11.80;94.10;;;;;;5043188;28;20395;-58
2022/10/15 00:23:55;;;;;;;45.88;28.70;;;11.80;94.00;;;;;;5046395;28;20025;-57
2022/10/15 00:26:24;;;;;;;49.45;29.50;;;11.70;94.00;;;;;;5038951;28;20025;-58
2022/10/15 00:28:55;;;;;;;41.28;28.48;;;11.70;94.00;;;;;;5038173;28;20033;-57
2022/10/15 00:31:25;;;;;;;48.70;29.67;;;11.70;94.10;;;;;;5055614;28;20524;-56
2022/10/15 00:33:56;;;;;;;45.15;28.23;;;11.70;94.00;;;;;;5053428;28;20029;-58
2022/10/15 00:36:27;;;;;;;47.65;29.85;;;11.60;94.00;;;;;;5053511;28;20076;-58
2022/10/15 00:38:54;;;;;;;45.70;30.58;;;11.70;94.00;;;;;;5047123;28;20021;-58
2022/10/15 00:41:29;;;;;;;45.72;29.77;;;11.60;94.00;;;;;;5053823;28;20082;-58
2022/10/15 00:43:59;;;;;;;41.85;28.30;;;11.60;94.00;;;;;;5054805;28;20099;-57
2022/10/15 00:46:32;;;;;;;41.83;27.83;;;11.60;94.00;;;;;;5020754;28;20049;-58
2022/10/15 00:49:10;;;;;;;43.13;27.90;;;11.50;93.90;;;;;;5051972;28;20029;-59
2022/10/15 00:51:43;;;;;;;44.15;27.67;;;11.50;94.00;;;;;;5034228;28;20447;-58
2022/10/15 00:54:10;;;;;;;38.38;28.42;;;11.50;94.00;;;;;;5017726;28;20113;-57
2022/10/15 00:56:40;;;;;;;47.38;27.92;;;11.40;94.00;;;;;;5034717;28;20022;-58
2022/10/15 00:59:09;;;;;;;48.53;28.50;;;11.40;94.00;;;;;;5035591;28;20087;-56
2022/10/15 01:01:36;;;;;;;44.42;28.30;;;11.40;93.90;;;;;;5017871;28;20053;-58
2022/10/15 01:04:06;;;;;;;39.63;27.73;;;11.40;94.00;;;;;;5032938;28;20087;-58
2022/10/15 01:06:33;;;;;;;43.20;27.35;;;11.40;94.00;;;;;;5053908;28;20059;-59
2022/10/15 01:08:59;;;;;;;37.53;27.15;;;11.40;94.00;;;;;;5036391;28;20032;-57
2022/10/15 01:11:47;;;;;;;43.53;28.08;;;11.40;94.00;;;;;;5028114;28;20025;-59
2022/10/15 01:14:31;;;;;;;41.60;27.90;;;11.40;94.00;;;;;;5052612;28;20759;-58
2022/10/15 01:17:39;;;;;;;45.65;29.85;;;11.40;94.00;;;;;;5053164;28;20024;-59
2022/10/15 01:20:42;;;;;;;41.13;25.70;;;11.40;94.10;;;;;;5036916;28;20084;-58
2022/10/15 01:23:28;;;;;;;44.00;27.80;;;11.40;94.10;;;;;;5034907;28;20359;-57
2022/10/15 01:26:20;;;;;;;46.67;29.63;;;11.30;94.10;;;;;;5041921;28;20303;-59
2022/10/15 01:29:03;;;;;;;40.72;26.95;;;11.40;94.10;;;;;;5015169;28;20037;-59
2022/10/15 01:31:49;;;;;;;49.22;28.95;;;11.40;94.10;;;;;;5051785;28;20416;-59
2022/10/15 01:34:47;;;;;;;43.75;27.67;;;11.30;94.10;;;;;;5051516;28;20037;-59
2022/10/15 01:37:37;;;;;;;42.38;28.73;;;11.30;94.10;;;;;;5045508;28;20416;-59
2022/10/15 01:40:25;;;;;;;48.90;29.25;;;11.30;94.10;;;;;;5053991;28;20021;-58
2022/10/15 01:43:05;;;;;;;44.58;27.63;;;11.30;94.10;;;;;;5053946;28;20097;-59
2022/10/15 01:45:55;;;;;;;47.92;30.52;;;11.20;94.10;;;;;;5031585;28;20049;-58
2022/10/15 01:48:26;;;;;;;45.80;28.95;;;11.30;94.20;;;;;;5017648;28;20034;-59
2022/10/15 01:50:58;;;;;;;48.38;30.88;;;11.20;94.20;;;;;;5028411;28;20458;-59
2022/10/15 01:53:27;;;;;;;50.28;31.85;;;11.20;94.30;;;;;;5033112;28;20030;-59
2022/10/15 01:55:58;;;;;;;50.33;31.23;;;11.20;94.30;;;;;;5048214;28;20116;-59
2022/10/15 01:58:26;;;;;;;49.90;31.40;;;11.30;94.40;;;;;;5034042;28;20376;-58
2022/10/15 02:00:56;;;;;;;49.72;31.45;;;11.30;94.40;;;;;;5031766;28;20057;-59
2022/10/15 02:03:24;;;;;;;58.30;34.58;;;11.40;94.40;;;;;;5031953;28;20036;-59
2022/10/15 02:06:15;;;;;;;58.70;35.53;;;11.40;94.40;;;;;;5031801;28;20680;-59
2022/10/15 02:09:18;;;;;;;56.08;33.85;;;11.30;94.40;;;;;;5033037;28;20052;-59
2022/10/15 02:11:58;;;;;;;59.03;34.65;;;11.40;94.40;;;;;;5032544;28;20033;-59
2022/10/15 02:14:33;;;;;;;54.03;34.85;;;11.40;94.40;;;;;;5033777;28;20036;-58
2022/10/15 02:17:08;;;;;;;57.10;35.08;;;11.30;94.40;;;;;;5044512;28;20526;-59
2022/10/15 02:19:52;;;;;;;52.80;32.50;;;11.30;94.50;;;;;;5028446;28;20029;-59
2022/10/15 02:22:42;;;;;;;63.65;35.28;;;11.30;94.50;;;;;;5031253;28;20060;-58
2022/10/15 02:25:18;;;;;;;63.05;37.13;;;11.30;94.40;;;;;;5033288;28;20044;-59
2022/10/15 02:27:48;;;;;;;69.65;39.65;;;11.30;94.50;;;;;;5032613;28;20528;-57
2022/10/15 02:30:15;;;;;;;62.78;36.45;;;11.30;94.50;;;;;;5031879;28;20026;-59
2022/10/15 02:32:45;;;;;;;64.88;39.13;;;11.30;94.50;;;;;;5040159;28;20059;-59
2022/10/15 02:35:13;;;;;;;;;;;11.20;94.50;;;;;;5013685;28;20025;-59
2022/10/15 02:37:46;;;;;;;69.03;39.13;;;11.30;94.50;;;;;;5024034;28;20250;-59
2022/10/15 02:40:13;;;;;;;68.85;38.65;;;11.30;94.50;;;;;;5031854;28;20454;-57
2022/10/15 02:42:41;;;;;;;68.18;39.92;;;11.20;94.50;;;;;;5033252;28;20358;-59
2022/10/15 02:45:10;;;;;;;70.65;41.08;;;11.30;94.60;;;;;;5041094;28;20056;-59
2022/10/15 02:47:37;;;;;;;;;;;11.30;94.60;;;;;;5052337;28;20163;-59
2022/10/15 02:50:04;;;;;;;68.82;38.20;;;11.40;94.70;;;;;;5035371;28;19988;-59
2022/10/15 02:52:31;;;;;;;71.45;41.90;;;11.40;94.60;;;;;;5046597;28;20037;-57
2022/10/15 02:54:57;;;;;;;80.38;43.95;;;11.40;94.70;;;;;;5033275;28;20454;-59
2022/10/15 02:57:24;;;;;;;75.93;42.95;;;11.40;94.70;;;;;;5045614;28;20025;-59
2022/10/15 02:59:51;;;;;;;74.78;42.72;;;11.40;94.70;;;;;;5059261;28;20599;-58
2022/10/15 03:02:20;;;;;;;75.60;45.63;;;11.40;94.70;;;;;;5040506;28;20068;-58
2022/10/15 03:04:47;;;;;;;76.72;42.42;;;11.40;94.70;;;;;;5054800;28;20530;-59
2022/10/15 03:07:14;;;;;;;77.40;44.80;;;11.40;94.70;;;;;;5022122;28;20025;-59
2022/10/15 03:09:41;;;;;;;74.97;42.38;;;11.40;94.60;;;;;;5051600;28;20033;-59
2022/10/15 03:12:11;;;;;;;76.28;45.10;;;11.40;94.70;;;;;;5058974;28;20107;-59
2022/10/15 03:14:40;;;;;;;77.18;46.70;;;11.40;94.70;;;;;;5041675;28;20434;-58
2022/10/15 03:17:06;;;;;;;77.10;45.67;;;11.40;94.70;;;;;;5055055;28;20021;-58
2022/10/15 03:19:33;;;;;;;77.82;45.58;;;11.40;94.70;;;;;;5050121;28;20550;-59
2022/10/15 03:22:00;;;;;;;78.50;47.10;;;11.40;94.70;;;;;;5033245;28;20107;-59
2022/10/15 03:24:26;;;;;;;86.20;48.45;;;11.40;94.70;;;;;;5058099;28;20017;-59
2022/10/15 03:26:52;;;;;;;75.68;48.47;;;11.40;94.80;;;;;;5058491;28;20120;-57
2022/10/15 03:29:19;;;;;;;86.68;49.47;;;11.40;94.70;;;;;;5059644;28;20104;-58
2022/10/15 03:31:45;;;;;;;80.38;47.35;;;11.40;94.70;;;;;;5059086;28;20087;-59
2022/10/15 03:34:13;;;;;;;81.85;47.67;;;11.40;94.70;;;;;;5057614;28;20031;-58
2022/10/15 03:36:40;;;;;;;89.40;49.97;;;11.40;94.80;;;;;;5058992;28;20435;-59
2022/10/15 03:39:07;;;;;;;91.35;51.10;;;11.50;94.70;;;;;;5059608;28;20116;-59
2022/10/15 03:41:34;;;;;;;83.63;47.88;;;11.50;94.80;;;;;;5058291;28;20033;-58
2022/10/15 03:44:03;;;;;;;86.75;49.85;;;11.50;94.80;;;;;;5058331;28;20029;-58
2022/10/15 03:46:30;;;;;;;85.53;49.67;;;11.50;94.80;;;;;;5039171;28;20045;-57
2022/10/15 03:48:55;;;;;;;95.75;51.13;;;11.50;94.80;;;;;;5037161;28;20035;-58
2022/10/15 03:51:23;;;;;;;82.63;49.42;;;11.50;94.80;;;;;;5039283;28;20490;-59
2022/10/15 03:53:49;;;;;;;90.22;48.22;;;11.50;94.80;;;;;;5016740;28;20034;-59
2022/10/15 03:56:15;;;;;;;79.80;47.13;;;11.50;94.80;;;;;;5023523;28;20029;-59
2022/10/15 03:58:42;;;;;;;80.22;47.20;;;11.50;94.80;;;;;;5038465;28;20033;-55
2022/10/15 04:01:11;;;;;;;94.63;51.97;;;11.60;94.90;;;;;;5037054;28;20112;-58
2022/10/15 04:03:38;;;;;;;89.93;50.90;;;11.60;94.80;;;;;;5033462;28;20033;-56
2022/10/15 04:06:06;;;;;;;86.63;51.22;;;11.60;94.90;;;;;;5016523;28;20041;-55
2022/10/15 04:08:33;;;;;;;85.43;49.20;;;11.70;94.90;;;;;;5022505;28;20037;-59
2022/10/15 04:11:00;;;;;;;82.45;48.78;;;11.70;94.90;;;;;;5001059;28;20523;-57
2022/10/15 04:13:28;;;;;;;88.70;50.15;;;11.70;94.90;;;;;;5034773;28;20030;-57
2022/10/15 04:15:55;;;;;;;87.55;50.42;;;11.70;94.90;;;;;;5025726;28;20037;-58
2022/10/15 04:18:22;;;;;;;91.70;52.13;;;11.70;94.80;;;;;;5027084;28;20447;-54
2022/10/15 04:20:49;;;;;;;86.53;49.80;;;11.70;94.80;;;;;;4995545;28;20451;-57
2022/10/15 04:23:16;;;;;;;82.07;48.38;;;11.70;94.80;;;;;;5034387;28;20087;-55
2022/10/15 04:25:44;;;;;;;85.35;50.55;;;11.80;94.80;;;;;;5018099;28;20017;-57
2022/10/15 04:28:12;;;;;;;80.70;49.80;;;11.80;94.80;;;;;;5017475;28;20030;-55
2022/10/15 04:30:38;;;;;;;87.07;50.60;;;11.80;94.80;;;;;;5020189;28;20351;-51
2022/10/15 04:33:05;;;;;;;86.88;49.65;;;11.80;94.80;;;;;;5035564;28;20036;-56
2022/10/15 04:35:33;;;;;;;89.25;49.95;;;11.80;94.80;;;;;;5034491;28;20083;-57
2022/10/15 04:38:00;;;;;;;81.65;48.65;;;11.80;94.80;;;;;;5035384;28;20036;-58
2022/10/15 04:40:27;;;;;;;78.45;48.38;;;11.90;94.80;;;;;;5034225;28;20036;-53
2022/10/15 04:42:54;;;;;;;87.50;49.10;;;11.80;94.80;;;;;;5033824;28;20036;-57
2022/10/15 04:45:21;;;;;;;87.63;50.22;;;11.80;94.80;;;;;;5031053;28;20132;-55
2022/10/15 04:47:48;;;;;;;91.82;52.53;;;11.80;94.80;;;;;;5034786;28;20331;-57
2022/10/15 04:50:14;;;;;;;91.07;50.53;;;11.80;94.80;;;;;;5033647;28;20072;-57
2022/10/15 04:52:41;;;;;;;93.35;52.10;;;11.80;94.80;;;;;;5033628;28;20036;-52
2022/10/15 04:55:09;;;;;;;106.30;54.28;;;11.80;94.80;;;;;;5034985;28;20082;-57
2022/10/15 04:57:35;;;;;;;96.93;52.72;;;11.80;94.80;;;;;;5035250;28;20083;-56
2022/10/15 05:00:00;;;;;;;95.30;51.53;;;11.80;94.80;;;;;;5029457;28;20343;-57
2022/10/15 05:02:29;;;;;;;96.65;52.72;;;11.80;94.90;;;;;;5001582;28;20022;-57
2022/10/15 05:04:55;;;;;;;105.68;54.45;;;11.90;94.90;;;;;;5017509;28;20021;-56
2022/10/15 05:07:23;;;;;;;105.47;55.38;;;11.90;94.90;;;;;;5032823;28;20140;-57
2022/10/15 05:09:50;;;;;;;106.38;55.97;;;11.90;94.90;;;;;;5033940;28;20036;-57
2022/10/15 05:12:19;;;;;;;103.82;53.75;;;11.90;94.90;;;;;;5034625;28;20029;-56
2022/10/15 05:14:45;;;;;;;103.57;54.88;;;11.90;94.90;;;;;;5013652;28;20386;-57
2022/10/15 05:17:12;;;;;;;105.90;52.90;;;11.90;94.90;;;;;;5004551;28;20068;-55
2022/10/15 05:19:39;;;;;;;103.88;55.08;;;11.90;94.90;;;;;;4997510;28;20080;-56
2022/10/15 05:22:04;;;;;;;107.10;52.88;;;11.90;94.90;;;;;;5034182;28;20079;-54
2022/10/15 05:24:31;;;;;;;102.78;53.90;;;11.90;94.90;;;;;;5033540;28;20029;-58
2022/10/15 05:27:00;;;;;;;115.70;55.15;;;11.90;94.90;;;;;;5014300;28;20081;-55
2022/10/15 05:29:27;;;;;;;107.43;52.83;;;11.90;94.90;;;;;;5030905;28;20120;-52
2022/10/15 05:31:53;;;;;;;115.82;53.97;;;11.90;94.90;;;;;;5032971;28;20025;-56
2022/10/15 05:34:19;;;;;;;119.22;54.78;;;11.90;94.90;;;;;;5033239;28;20033;-58
2022/10/15 05:36:46;;;;;;;109.10;56.63;;;11.90;94.90;;;;;;5033251;28;20040;-54
2022/10/15 05:39:14;;;;;;;115.43;54.50;;;12.00;94.90;;;;;;5032688;28;20025;-54
2022/10/15 05:41:39;;;;;;;113.80;55.45;;;12.00;94.90;;;;;;5015072;28;20022;-55
2022/10/15 05:44:05;;;;;;;111.70;54.90;;;12.00;94.80;;;;;;5027197;28;20034;-58
2022/10/15 05:46:32;;;;;;;106.35;52.63;;;11.90;94.90;;;;;;5048513;28;20029;-55
2022/10/15 05:48:59;;;;;;;112.65;52.25;;;11.90;94.90;;;;;;5052551;28;20564;-56
2022/10/15 05:51:26;;;;;;;110.97;51.90;;;12.00;94.90;;;;;;5053896;28;20101;-56
2022/10/15 05:53:57;;;;;;;107.43;53.13;;;12.00;94.90;;;;;;5053987;28;20032;-58
2022/10/15 05:56:25;;;;;;;109.53;51.50;;;11.90;94.90;;;;;;5039373;28;20087;-58
2022/10/15 05:58:53;;;;;;;122.72;53.97;;;11.90;94.90;;;;;;5046236;28;20055;-58
2022/10/15 06:01:19;;;;;;;118.03;51.90;;;11.90;94.90;;;;;;5035255;28;20416;-55
2022/10/15 06:03:49;;;;;;;118.97;52.88;;;11.90;94.90;;;;;;5052834;28;20108;-56
2022/10/15 06:06:17;;;;;;;;;;;11.90;94.90;;;;;;5040133;28;20350;-55
2022/10/15 06:08:44;;;;;;;118.22;50.45;;;11.90;94.80;;;;;;5037567;28;19909;-56
2022/10/15 06:11:11;;;;;;;109.30;50.28;;;11.90;94.90;;;;;;5053544;28;20072;-54
2022/10/15 06:13:40;;;;;;;109.50;50.38;;;11.90;94.80;;;;;;5044859;28;20029;-53
2022/10/15 06:16:08;;;;;;;117.40;53.13;;;11.90;94.80;;;;;;5053732;28;20031;-57
2022/10/15 06:18:36;;;;;;;115.43;51.25;;;11.90;94.90;;;;;;5051992;28;20040;-56
2022/10/15 06:21:03;;;;;;;107.65;49.78;;;11.90;94.80;;;;;;5052379;28;20021;-56
2022/10/15 06:23:31;;;;;;;117.30;52.22;;;11.90;94.90;;;;;;5021277;28;20026;-55
2022/10/15 06:26:02;;;;;;;103.10;49.38;;;11.90;94.90;;;;;;5013466;28;20462;-55
2022/10/15 06:28:27;;;;;;;101.93;50.20;;;11.90;94.80;;;;;;5047815;28;20466;-57
2022/10/15 06:30:57;;;;;;;116.10;54.10;;;11.90;94.90;;;;;;5051403;28;20032;-54
2022/10/15 06:33:31;;;;;;;;;;;11.90;94.80;;;;;;5034512;28;20369;-58
2022/10/15 06:36:09;;;;;;;104.53;47.85;;;11.90;94.80;;;;;;5051293;28;19917;-53
2022/10/15 06:38:38;;;;;;;100.25;49.78;;;11.90;94.80;;;;;;5052447;28;20390;-53
2022/10/15 06:41:06;;;;;;;105.27;53.23;;;12.00;94.80;;;;;;5051709;28;20075;-56
2022/10/15 06:43:33;;;;;;;109.10;49.83;;;11.90;94.80;;;;;;5050689;28;20455;-57
2022/10/15 06:46:01;;;;;;;109.28;51.22;;;11.90;94.80;;;;;;5052067;28;20474;-54
2022/10/15 06:48:27;;;;;;;110.55;53.03;;;12.00;94.80;;;;;;5050924;28;20441;-55
2022/10/15 06:50:56;;;;;;;109.85;53.80;;;12.00;94.80;;;;;;5051772;28;20327;-57
2022/10/15 06:53:23;;;;;;;102.55;50.65;;;11.90;94.70;;;;;;5051559;28;20029;-57
2022/10/15 06:55:49;;;;;;;110.32;51.67;;;11.90;94.70;;;;;;5051638;28;20047;-59
2022/10/15 06:58:15;;;;;;;97.53;48.45;;;11.90;94.60;;;;;;5032181;28;20551;-60
2022/10/15 07:00:44;;;;;;;102.30;52.63;;;12.00;94.60;;;;;;5033889;28;20053;-60
2022/10/15 07:03:11;;;;;;;112.40;51.50;;;12.00;94.70;;;;;;5051133;28;20474;-60
2022/10/15 07:05:37;;;;;;;95.53;49.13;;;12.00;94.60;;;;;;5051363;28;20029;-58
2022/10/15 07:08:04;;;;;;;95.47;48.28;;;12.10;94.60;;;;;;5051514;28;20039;-59
2022/10/15 07:10:30;;;;;;;96.28;49.78;;;12.20;94.50;;;;;;5051620;28;20025;-59
2022/10/15 07:12:59;;;;;;;88.65;46.53;;;12.20;94.50;;;;;;5050296;28;20066;-59
2022/10/15 07:15:28;;;;;;;94.57;50.22;;;12.20;94.40;;;;;;5041679;28;20175;-60
2022/10/15 07:17:56;;;;;;;94.63;51.08;;;12.30;94.40;;;;;;5050919;28;20391;-60
2022/10/15 07:20:23;;;;;;;90.32;47.10;;;12.30;94.40;;;;;;5052014;28;20035;-62
2022/10/15 07:22:56;;;;;;;84.30;49.05;;;12.30;94.30;;;;;;5050511;28;20025;-62
2022/10/15 07:25:25;;;;;;;77.63;47.30;;;12.30;94.30;;;;;;5049665;28;20124;-61
2022/10/15 07:27:54;;;;;;;89.43;49.25;;;12.30;94.20;;;;;;5029616;28;20029;-60
2022/10/15 07:30:22;;;;;;;83.35;42.95;;;12.30;94.20;;;;;;5022861;28;20038;-60
2022/10/15 07:32:50;;;;;;;79.97;45.20;;;12.40;94.20;;;;;;5047091;28;20021;-59
2022/10/15 07:35:17;;;;;;;80.43;47.47;;;12.40;94.10;;;;;;5052335;28;20098;-59
2022/10/15 07:37:43;;;;;;;84.78;47.67;;;12.40;94.10;;;;;;5050631;28;20021;-58
2022/10/15 07:40:09;;;;;;;85.97;48.00;;;12.40;94.10;;;;;;5049036;28;20430;-56
2022/10/15 07:42:37;;;;;;;75.13;42.97;;;12.40;94.00;;;;;;5051842;28;20029;-55
2022/10/15 07:45:04;;;;;;;76.35;44.15;;;12.40;94.00;;;;;;5051121;28;20060;-57
2022/10/15 07:47:31;;;;;;;82.60;42.20;;;12.40;93.80;;;;;;5039176;28;20043;-55
2022/10/15 07:49:58;;;;;;;72.75;43.58;;;12.40;93.80;;;;;;5055930;28;20028;-57
2022/10/15 07:52:25;;;;;;;78.90;43.88;;;12.40;93.80;;;;;;5053699;28;20029;-55
2022/10/15 07:54:51;;;;;;;70.18;42.50;;;12.50;93.70;;;;;;5054898;28;20032;-54
2022/10/15 07:57:18;;;;;;;73.68;41.45;;;12.50;93.80;;;;;;5043684;28;20116;-55
2022/10/15 07:59:45;;;;;;;74.18;41.35;;;12.60;93.70;;;;;;5052949;28;20017;-51
2022/10/15 08:02:16;;;;;;;78.35;42.70;;;12.60;93.50;;;;;;5054333;28;20162;-50
2022/10/15 08:04:42;;;;;;;66.57;40.92;;;12.60;93.50;;;;;;5053748;28;20076;-54
2022/10/15 08:07:11;;;;;;;69.55;41.28;;;12.50;93.40;;;;;;5032747;28;20067;-52
2022/10/15 08:09:38;;;;;;;68.82;40.33;;;12.60;93.50;;;;;;5033220;28;20119;-53
2022/10/15 08:12:06;;;;;;;75.38;41.65;;;12.60;93.50;;;;;;5054733;28;20037;-54
2022/10/15 08:14:34;;;;;;;73.55;44.15;;;12.70;93.30;;;;;;5053393;28;20025;-52
2022/10/15 08:17:05;;;;;;;69.32;41.88;;;12.70;93.40;;;;;;5054872;28;20029;-54
2022/10/15 08:19:32;;;;;;;71.47;41.95;;;12.70;93.30;;;;;;5054875;28;20035;-56
2022/10/15 08:21:59;;;;;;;72.75;42.03;;;12.80;93.20;;;;;;5053378;28;20025;-53
2022/10/15 08:24:25;;;;;;;71.90;43.65;;;12.80;93.10;;;;;;5053645;28;20350;-55
2022/10/15 08:26:52;;;;;;;75.93;41.45;;;12.90;93.10;;;;;;5053102;28;20396;-55
2022/10/15 08:29:19;;;;;;;72.65;42.03;;;12.90;93.20;;;;;;5054548;28;20656;-52
2022/10/15 08:31:46;;;;;;;69.88;42.90;;;13.00;93.10;;;;;;5053119;28;20029;-52
2022/10/15 08:34:13;;;;;;;65.57;42.50;;;13.10;93.00;;;;;;5054923;28;20025;-54
2022/10/15 08:36:39;;;;;;;62.22;41.20;;;13.20;92.80;;;;;;5036993;28;20033;-53
2022/10/15 08:39:06;;;;;;;66.53;41.92;;;13.20;92.70;;;;;;5044065;28;20056;-51
2022/10/15 08:41:48;;;;;;;62.40;41.05;;;13.30;92.60;;;;;;5053231;28;20040;-48
2022/10/15 08:44:24;;;;;;;62.90;38.15;;;13.40;92.50;;;;;;5027191;28;20033;-49
2022/10/15 08:47:25;;;;;;;62.28;40.80;;;13.40;92.30;;;;;;5036841;28;20099;-48
2022/10/15 08:50:26;;;;;;;57.63;39.13;;;13.50;92.30;;;;;;5048183;28;20107;-50
2022/10/15 08:52:56;;;;;;;61.50;41.50;;;13.60;92.30;;;;;;5049661;28;20035;-48
2022/10/15 08:55:23;;;;;;;70.90;41.13;;;13.70;92.10;;;;;;5033538;28;20039;-50
2022/10/15 08:58:06;;;;;;;62.13;42.90;;;13.70;91.90;;;;;;5036922;28;20033;-49
2022/10/15 09:00:42;;;;;;;66.15;43.45;;;13.80;91.90;;;;;;5052253;28;20021;-47
2022/10/15 09:03:30;;;;;;;57.75;40.95;;;13.90;91.80;;;;;;5053180;28;20017;-49
2022/10/15 09:06:19;;;;;;;57.50;41.22;;;13.90;91.60;;;;;;5035167;28;20029;-52
2022/10/15 09:09:04;;;;;;;57.30;38.97;;;14.10;91.50;;;;;;5033441;28;20381;-50
2022/10/15 09:12:03;;;;;;;56.78;40.33;;;14.30;91.30;;;;;;5050120;28;20037;-52
2022/10/15 09:14:34;;;;;;;62.50;41.05;;;14.40;91.00;;;;;;5033884;28;20033;-49
2022/10/15 09:17:05;;;;;;;47.83;38.63;;;14.80;91.00;;;;;;5052442;28;20052;-50
2022/10/15 09:19:34;;;;;;;51.67;39.70;;;14.90;89.90;;;;;;5036209;28;20167;-51
2022/10/15 09:22:01;;;;;;;50.70;37.35;;;15.00;89.60;;;;;;5051748;28;20498;-48
2022/10/15 09:24:29;;;;;;;48.63;38.25;;;15.00;89.10;;;;;;5046000;28;20017;-48
2022/10/15 09:27:18;;;;;;;48.97;37.47;;;15.10;89.00;;;;;;5029707;28;20362;-50
2022/10/15 09:30:02;;;;;;;45.13;37.25;;;15.00;88.50;;;;;;5033175;28;20029;-50
2022/10/15 09:32:42;;;;;;;47.92;37.38;;;15.10;88.80;;;;;;5045546;28;20042;-49
2022/10/15 09:35:35;;;;;;;47.45;38.50;;;15.20;89.00;;;;;;5051842;28;20116;-47
2022/10/15 09:38:22;;;;;;;50.63;36.45;;;15.20;88.90;;;;;;5050391;28;20094;-51
2022/10/15 09:41:15;;;;;;;46.03;37.17;;;15.40;88.90;;;;;;5051007;28;20040;-46
2022/10/15 09:43:45;;;;;;;47.20;35.85;;;15.50;88.90;;;;;;5048861;28;20024;-49
2022/10/15 09:46:12;;;;;;;47.60;36.38;;;15.70;88.60;;;;;;5015069;28;20073;-50
2022/10/15 09:48:47;;;;;;;42.38;34.95;;;15.80;87.90;;;;;;5009554;28;20431;-50
2022/10/15 09:51:26;;;;;;;47.28;36.95;;;15.70;87.40;;;;;;5023776;28;20605;-46
2022/10/15 09:54:17;;;;;;;43.70;35.10;;;15.60;87.00;;;;;;5029690;28;20794;-49
2022/10/15 09:56:51;;;;;;;45.70;36.92;;;15.60;87.60;;;;;;5032249;28;20048;-47
2022/10/15 09:59:19;;;;;;;43.22;35.05;;;15.60;87.50;;;;;;5024104;28;20161;-48
2022/10/15 10:02:03;;;;;;;44.83;35.75;;;15.70;87.80;;;;;;5025978;28;20037;-51
2022/10/15 10:04:35;;;;;;;44.80;34.53;;;15.90;87.00;;;;;;5032412;28;20464;-51
2022/10/15 10:07:06;;;;;;;41.40;35.10;;;15.90;86.90;;;;;;5041055;28;20021;-46
2022/10/15 10:09:55;;;;;;;42.03;34.03;;;15.90;86.80;;;;;;5008577;28;20038;-53
2022/10/15 10:12:29;;;;;;;40.60;33.42;;;16.10;87.30;;;;;;5006161;28;20022;-46
2022/10/15 10:15:04;;;;;;;42.90;33.50;;;16.20;87.30;;;;;;4995600;28;20033;-47
2022/10/15 10:17:32;;;;;;;42.00;33.60;;;16.40;86.00;;;;;;5023773;28;20025;-50
2022/10/15 10:20:13;;;;;;;37.38;32.15;;;16.40;85.20;;;;;;5010842;28;20033;-47
2022/10/15 10:22:52;;;;;;;39.38;32.72;;;16.40;85.80;;;;;;5030087;28;20128;-47
2022/10/15 10:25:34;;;;;;;40.30;32.72;;;16.50;85.90;;;;;;5026443;28;20371;-46
2022/10/15 10:28:11;;;;;;;35.45;30.65;;;16.40;85.30;;;;;;5023542;28;20034;-46
2022/10/15 10:30:51;;;;;;;35.10;30.17;;;16.40;85.00;;;;;;5019943;28;20026;-48
2022/10/15 10:33:28;;;;;;;;;;;16.50;85.40;;;;;;5004516;28;20037;-49
2022/10/15 10:35:56;;;;;;;36.33;30.77;;;16.50;85.60;;;;;;5011328;28;20011;-49
2022/10/15 10:38:28;;;;;;;37.05;31.70;;;16.40;85.40;;;;;;5032457;28;20022;-51
2022/10/15 10:40:59;;;;;;;38.45;29.85;;;16.60;85.00;;;;;;5031780;28;20033;-49
2022/10/15 10:43:54;;;;;;;43.88;32.80;;;16.50;84.80;;;;;;5030931;28;20024;-48
2022/10/15 10:46:25;;;;;;;37.00;31.00;;;16.50;85.10;;;;;;5049824;28;20041;-48
2022/10/15 10:48:53;;;;;;;37.35;32.28;;;16.60;85.20;;;;;;5048203;28;20036;-47
2022/10/15 10:51:47;;;;;;;38.28;31.65;;;16.60;84.90;;;;;;5048258;28;20036;-47
2022/10/15 10:54:13;;;;;;;39.22;32.22;;;16.60;83.90;;;;;;5051974;28;20104;-47
2022/10/15 10:56:44;;;;;;;37.15;30.95;;;16.60;84.70;;;;;;5037511;28;20049;-47
2022/10/15 10:59:19;;;;;;;32.30;28.00;;;16.70;84.30;;;;;;5039497;28;20044;-52
2022/10/15 11:01:46;;;;;;;37.75;29.88;;;16.70;84.60;;;;;;5051738;28;20029;-46
2022/10/15 11:04:25;;;;;;;33.50;28.48;;;16.90;83.80;;;;;;5050654;28;20033;-49
2022/10/15 11:07:28;;;;;;;33.33;29.20;;;16.90;83.40;;;;;;5051815;28;20029;-48
2022/10/15 11:10:15;;;;;;;35.10;29.13;;;16.90;83.40;;;;;;5049351;28;20037;-48
2022/10/15 11:13:10;;;;;;;33.50;29.88;;;16.90;84.10;;;;;;5051259;28;20139;-48
2022/10/15 11:16:24;;;;;;;33.83;29.70;;;16.90;83.90;;;;;;5044727;28;20049;-46
2022/10/15 11:19:07;;;;;;;33.25;27.52;;;17.00;83.00;;;;;;5042938;28;20041;-48
2022/10/15 11:22:07;;;;;;;32.42;26.33;;;17.10;83.10;;;;;;5054460;28;20020;-46
2022/10/15 11:25:04;;;;;;;28.40;24.77;;;17.20;81.40;;;;;;5051256;28;20029;-48
2022/10/15 11:27:57;;;;;;;29.73;25.38;;;17.20;81.10;;;;;;5054274;28;20089;-49
2022/10/15 11:30:54;;;;;;;26.20;23.58;;;17.30;82.30;;;;;;5037154;28;20048;-46
2022/10/15 11:33:30;;;;;;;27.65;24.23;;;17.40;80.60;;;;;;5025219;28;20071;-46
2022/10/15 11:36:20;;;;;;;25.77;20.73;;;17.30;81.10;;;;;;5054842;28;20036;-48
2022/10/15 11:39:11;;;;;;;25.00;21.23;;;17.10;79.50;;;;;;5056230;28;20029;-46
2022/10/15 11:42:01;;;;;;;25.52;22.50;;;16.90;80.70;;;;;;5050451;28;20026;-46
2022/10/15 11:44:29;;;;;;;25.30;22.60;;;16.60;81.00;;;;;;5052629;28;20072;-47
2022/10/15 11:47:16;;;;;;;25.52;22.88;;;16.50;81.50;;;;;;5055938;28;20116;-46
2022/10/15 11:50:00;;;;;;;22.65;20.13;;;16.40;82.10;;;;;;5055290;28;20365;-48
2022/10/15 11:53:03;;;;;;;29.10;21.85;;;16.40;82.80;;;;;;5054469;28;20039;-48
2022/10/15 11:55:55;;;;;;;25.73;22.52;;;16.30;83.40;;;;;;5055829;28;20033;-48
2022/10/15 11:58:49;;;;;;;23.92;20.90;;;16.40;83.60;;;;;;5055241;28;20033;-52
2022/10/15 12:01:47;;;;;;;29.70;23.05;;;16.40;83.70;;;;;;5054486;28;20029;-46
2022/10/15 12:04:23;;;;;;;25.65;22.52;;;16.40;83.90;;;;;;5027376;28;20471;-46
2022/10/15 12:06:53;;;;;;;23.90;21.30;;;16.60;83.50;;;;;;5034576;28;20440;-48
2022/10/15 12:09:27;;;;;;;22.58;20.17;;;16.60;82.60;;;;;;5046401;28;20029;-48
2022/10/15 12:12:26;;;;;;;20.63;18.48;;;16.60;82.30;;;;;;5020567;28;20049;-45
2022/10/15 12:15:23;;;;;;;19.27;17.35;;;16.60;82.20;;;;;;5054521;28;20473;-49
2022/10/15 12:18:45;;;;;;;24.48;18.73;;;16.60;82.20;;;;;;5053379;28;20036;-46
2022/10/15 12:21:34;;;;;;;20.55;18.42;;;16.70;82.10;;;;;;4989502;28;20045;-48
2022/10/15 12:24:02;;;;;;;19.63;17.63;;;16.70;81.90;;;;;;5043199;28;20399;-49
2022/10/15 12:26:34;;;;;;;20.33;17.25;;;16.60;81.10;;;;;;5048534;28;20037;-46
2022/10/15 12:29:04;;;;;;;19.73;17.77;;;16.40;80.40;;;;;;5046987;28;20035;-47
2022/10/15 12:31:55;;;;;;;23.38;17.65;;;16.40;81.30;;;;;;5048621;28;20346;-47
2022/10/15 12:34:41;;;;;;;19.52;17.15;;;16.30;82.00;;;;;;5051401;28;20029;-47
2022/10/15 12:37:20;;;;;;;19.80;17.15;;;16.20;81.00;;;;;;5044822;28;20021;-50
2022/10/15 12:39:54;;;;;;;20.87;17.37;;;16.10;81.30;;;;;;5041037;28;20049;-47
2022/10/15 12:42:30;;;;;;;18.02;16.13;;;16.00;81.60;;;;;;5050585;28;20131;-49
2022/10/15 12:45:01;;;;;;;20.90;18.58;;;16.00;81.60;;;;;;5031140;28;20462;-48
2022/10/15 12:47:52;;;;;;;20.60;18.38;;;16.00;81.90;;;;;;5031118;28;20421;-49
2022/10/15 12:50:25;;;;;;;20.40;18.20;;;16.00;82.20;;;;;;5029613;28;20033;-50
2022/10/15 12:53:02;;;;;;;19.50;17.40;;;15.90;81.80;;;;;;5024720;28;20029;-50
2022/10/15 12:55:37;;;;;;;20.95;18.73;;;16.00;82.60;;;;;;5031523;28;20171;-45
2022/10/15 12:58:43;;;;;;;20.30;18.13;;;16.00;82.40;;;;;;5025939;28;20022;-51
2022/10/15 13:01:17;;;;;;;21.80;19.38;;;16.30;83.00;;;;;;5026441;28;20076;-47